Terminal Aerodrome Forecast
Issued by NWS

Home | Current Version | Previous Version | Text Only | Print | Product List | Glossary On
Versions: 1 2 3 4 5 6 7 8 9 10 11 12 13 14
000
FTUS44 KOUN 252330
TAFCSM
TAF
KCSM 252330Z 2600/2624 34011KT P6SM BKN060 BKN100
      TEMPO 2600/2604 VRB30KT 2SM TSRA BKN040CB OVC080
     FM260400 VRB15G25KT 5SM TSRA BKN030CB
     FM260700 VRB10KT P6SM -TSRA BKN040CB
     FM261000 15008KT P6SM SCT040=

USA.gov is the U.S. government's official web portal to all federal, state and local government web resources and services.